Data for 12/06/2015

Time Sea-Level Adjusted Pressure Absolute Pressure Temperature Relative Humidity Dew Point   
(mb) (inHg) (mb) (inHg) (C) (F) (%) (C) (F)
00:05 1025 30.27 854 25.22 -2.8 27 60 -9.5 14.8
00:10 1025 30.27 854 25.22 -2.5 27.6 59 -9.4 15.1
00:15 1025 30.27 854 25.22 -2.4 27.7 59 -9.4 15.1
00:20 1025 30.27 854 25.22 -2.3 27.9 58 -9.5 14.9
00:25 1025 30.27 854 25.22 -2.1 28.2 57 -9.4 15
00:30 1025 30.27 854 25.22 -2.2 28.1 57 -9.6 14.8
00:35 1025 30.27 854 25.22 -2.1 28.1 57 -9.6 14.7
00:40 1025 30.27 854 25.22 -2.3 27.9 59 -9.4 15.1
00:45 1025 30.27 854 25.22 -2.4 27.7 58 -9.5 14.9
00:50 1025 30.27 854 25.22 -2.3 27.8 57 -9.8 14.4
00:55 1025 30.27 854 25.22 -2.2 28.1 58 -9.4 15.1
01:00 1025 30.27 854 25.22 -2.4 27.7 58 -9.4 15
01:05 1024 30.24 854 25.22 -2.3 27.8 58 -9.5 14.8
01:10 1024 30.24 854 25.22 -2 28.3 56 -9.8 14.4
01:15 1024 30.24 854 25.22 -1.6 29.1 54 -9.6 14.7
01:20 1024 30.24 853 25.19 -1.5 29.3 54 -9.8 14.4
01:25 1024 30.24 853 25.19 -1.5 29.4 54 -9.6 14.8
01:30 1024 30.24 853 25.19 -1.4 29.5 54 -9.6 14.8
01:35 1024 30.24 853 25.19 -1.2 29.8 54 -9.4 15
01:40 1024 30.24 853 25.19 -1.4 29.5 55 -9.4 15.1
01:45 1024 30.24 853 25.19 -1.4 29.5 54 -9.4 15
01:50 1024 30.24 853 25.19 -1.1 30.1 52 -9.6 14.6
01:55 1024 30.24 853 25.19 -0.9 30.4 51 -9.8 14.3
02:00 1024 30.24 853 25.19 -0.9 30.4 52 -9.4 15
02:05 1024 30.24 853 25.19 -1 30.2 53 -9.5 14.9
02:10 1024 30.24 853 25.19 -1 30.1 53 -9.5 14.9
02:15 1024 30.24 853 25.19 -1.1 30 53 -9.5 15
02:20 1024 30.24 853 25.19 -1.2 29.9 55 -9.2 15.4
02:25 1024 30.24 853 25.19 -1.3 29.6 55 -9.1 15.6
02:30 1024 30.24 853 25.19 -1.5 29.3 54 -9.5 14.9
02:35 1024 30.24 853 25.19 -1.4 29.5 55 -9.3 15.3
02:40 1024 30.24 853 25.19 -1.5 29.3 56 -9.3 15.3
02:45 1024 30.24 853 25.19 -1.7 28.9 57 -9.1 15.6
02:50 1024 30.24 853 25.19 -1.9 28.6 57 -9.3 15.2
02:55 1023 30.21 853 25.19 -1.7 29 55 -9.5 14.8
03:00 1023 30.21 852 25.16 -1.3 29.7 55 -9.3 15.3
03:05 1023 30.21 852 25.16 -1.3 29.7 54 -9.4 15
03:10 1023 30.21 852 25.16 -1.4 29.5 54 -9.5 15
03:15 1023 30.21 852 25.16 -1.3 29.6 53 -9.7 14.6
03:20 1023 30.21 852 25.16 -1.1 30 53 -9.6 14.8
03:25 1023 30.21 852 25.16 -1 30.2 52 -9.7 14.5
03:30 1023 30.21 852 25.16 -0.8 30.6 51 -9.7 14.6
03:35 1023 30.21 852 25.16 -0.9 30.4 51 -9.9 14.2
03:40 1023 30.21 852 25.16 -0.7 30.7 50 -9.9 14.3
03:45 1023 30.21 852 25.16 -0.7 30.7 50 -9.8 14.4
03:50 1023 30.21 852 25.16 -0.8 30.5 51 -9.7 14.5
03:55 1023 30.21 852 25.16 -1 30.3 51 -9.8 14.4
04:00 1022 30.18 852 25.16 -0.7 30.7 50 -9.9 14.2
04:05 1023 30.21 852 25.16 -0.6 30.9 49 -10 14.1
04:10 1023 30.21 852 25.16 -0.4 31.2 48 -10.2 13.7
04:15 1023 30.21 852 25.16 -0.3 31.5 49 -9.9 14.2
04:20 1023 30.21 852 25.16 -0.5 31.2 49 -9.9 14.3
04:25 1023 30.21 852 25.16 -0.7 30.7 52 -9.5 14.9
04:30 1022 30.18 852 25.16 -1 30.3 51 -9.8 14.4
04:35 1022 30.18 852 25.16 -1 30.2 51 -9.9 14.2
04:40 1022 30.18 851 25.13 -0.9 30.3 51 -9.8 14.4
04:45 1022 30.18 851 25.13 -1 30.2 53 -9.5 15
04:50 1022 30.18 851 25.13 -1.3 29.7 51 -10.1 13.9
04:55 1022 30.18 851 25.13 -0.7 30.8 50 -10 14
05:00 1022 30.18 851 25.13 -0.6 30.9 49 -9.9 14.1
05:05 1022 30.18 851 25.13 -0.8 30.6 50 -9.9 14.2
05:10 1022 30.18 851 25.13 -0.8 30.5 50 -9.9 14.1
05:15 1022 30.18 851 25.13 -0.9 30.3 50 -10.1 13.8
05:20 1022 30.18 851 25.13 -1 30.3 51 -10 14
05:25 1022 30.18 851 25.13 -1 30.2 50 -10 13.9
05:30 1022 30.18 851 25.13 -1 30.2 51 -9.9 14.2
05:35 1022 30.18 851 25.13 -1.3 29.6 52 -10 14
05:40 1022 30.18 851 25.13 -1.4 29.6 50 -10.4 13.2
05:45 1022 30.18 851 25.13 -0.9 30.4 50 -10.1 13.9
05:50 1022 30.18 851 25.13 -1.2 29.8 52 -9.9 14.2
05:55 1022 30.18 851 25.13 -1.5 29.3 51 -10.4 13.3
06:00 1022 30.18 851 25.13 -1.1 30.1 49 -10.5 13.1
06:05 1022 30.18 851 25.13 -0.8 30.6 48 -10.3 13.4
06:10 1022 30.18 851 25.13 -0.9 30.4 50 -10.2 13.7
06:15 1022 30.18 851 25.13 -1.3 29.7 51 -10.1 13.8
06:20 1021 30.15 851 25.13 -1.3 29.7 49 -10.6 12.8
06:25 1021 30.15 851 25.13 -0.9 30.4 47 -10.8 12.6
06:30 1021 30.15 850 25.1 -0.7 30.7 48 -10.4 13.2
06:35 1021 30.15 850 25.1 -0.8 30.5 48 -10.5 13.1
06:40 1021 30.15 850 25.1 -0.9 30.3 49 -10.5 13.2
06:45 1021 30.15 850 25.1 -0.9 30.4 48 -10.5 13
06:50 1021 30.15 850 25.1 -1 30.2 50 -10.3 13.5
06:55 1021 30.15 850 25.1 -1.3 29.7 50 -10.5 13.1
07:00 1021 30.15 850 25.1 -1.3 29.7 52 -9.9 14.1
07:05 1021 30.15 850 25.1 -1.6 29 54 -9.7 14.5
07:10 1021 30.15 850 25.1 -1.9 28.6 55 -9.8 14.4
07:15 1021 30.15 850 25.1 -1.8 28.8 52 -10.3 13.5
07:20 1021 30.15 850 25.1 -1.1 30 50 -10.2 13.7
07:25 1021 30.15 850 25.1 -0.4 31.2 44 -11.3 11.6
07:30 1021 30.15 850 25.1 -0.3 31.5 47 -10.3 13.5
07:35 1021 30.15 850 25.1 -0.4 31.3 48 -10.1 13.8
07:40 1021 30.15 850 25.1 -0.7 30.8 48 -10.3 13.4
07:45 1020 30.12 850 25.1 -0.8 30.6 50 -10 14.1
07:50 1020 30.12 850 25.1 -1.1 30 52 -9.9 14.2
07:55 1020 30.12 849 25.07 -1.2 29.9 50 -10.3 13.5
08:00 1020 30.12 849 25.07 -0.9 30.4 47 -10.9 12.4
08:05 1020 30.12 849 25.07 -0.6 30.9 46 -10.9 12.3
08:10 1020 30.12 849 25.07 -0.3 31.5 44 -11.1 11.9
08:15 1020 30.12 849 25.07 -0.3 31.5 45 -10.9 12.4
08:20 1020 30.12 849 25.07 -0.2 31.6 43 -11.5 11.3
08:25 1020 30.12 849 25.07 0 32 42 -11.4 11.5
08:30 1020 30.12 849 25.07 0.1 32.2 42 -11.3 11.7
08:35 1020 30.12 849 25.07 -0.1 31.9 44 -11 12.2
08:40 1020 30.12 849 25.07 -0.2 31.6 44 -11.2 11.9
08:45 1020 30.12 849 25.07 -0.1 31.8 43 -11.3 11.6
08:50 1020 30.12 849 25.07 0 32 43 -11.1 12
08:55 1020 30.12 849 25.07 0 32 42 -11.6 11.2
09:00 1019 30.09 849 25.07 0.2 32.4 42 -11.1 12
09:05 1019 30.09 849 25.07 0.3 32.6 40 -11.6 11
09:10 1019 30.09 849 25.07 0.5 33 40 -11.5 11.3
09:15 1019 30.09 849 25.07 0.6 33.1 40 -11.4 11.5
09:20 1019 30.09 849 25.07 0.5 32.9 42 -11.1 12
09:25 1019 30.09 848 25.04 0.5 32.8 41 -11.4 11.5
09:30 1019 30.09 848 25.04 0.6 33 40 -11.5 11.3
09:35 1019 30.09 848 25.04 0.6 33.1 39 -11.8 10.8
09:40 1019 30.09 848 25.04 0.7 33.2 41 -11.2 11.8
09:45 1019 30.09 848 25.04 0.6 33.1 41 -11.4 11.6
09:50 1019 30.09 848 25.04 0.6 33.2 40 -11.6 11.1
09:55 1019 30.09 848 25.04 0.7 33.2 40 -11.3 11.7
10:00 1019 30.09 848 25.04 0.9 33.5 40 -11.1 11.9
10:05 1019 30.09 848 25.04 1 33.7 42 -10.6 12.9
10:10 1019 30.09 848 25.04 0.7 33.3 40 -11.3 11.7
10:15 1018 30.06 848 25.04 1.2 34.2 37 -12 10.4
10:20 1019 30.09 848 25.04 1.3 34.4 38 -11.4 11.5
10:25 1019 30.09 848 25.04 1.3 34.3 38 -11.5 11.3
10:30 1019 30.09 848 25.04 1.6 34.9 33 -12.9 8.7
10:35 1019 30.09 848 25.04 2.2 36 36 -11.5 11.3
10:40 1019 30.09 848 25.04 2.3 36.1 37 -11.1 12
10:45 1019 30.09 848 25.04 2.1 35.9 39 -10.4 13.2
10:50 1018 30.06 848 25.04 1.4 34.5 39 -11.1 12
10:55 1018 30.06 848 25.04 1.2 34.2 40 -10.9 12.3
11:00 1018 30.06 847 25.01 1.3 34.4 40 -10.8 12.6
11:05 1018 30.06 848 25.04 1.6 34.9 36 -11.9 10.5
11:10 1018 30.06 848 25.04 2.2 35.9 37 -11 12.2
11:15 1018 30.06 847 25.01 2.2 36 34 -12.1 10.2
11:20 1018 30.06 847 25.01 2.5 36.5 33 -12 10.4
11:25 1018 30.06 847 25.01 2.8 37 35 -11.2 11.9
11:30 1018 30.06 847 25.01 3 37.5 33 -11.9 10.6
11:35 1018 30.06 847 25.01 3.5 38.3 31 -12.1 10.3
11:40 1018 30.06 847 25.01 4.9 40.7 30 -11.5 11.3
11:45 1018 30.06 847 25.01 5.3 41.5 28 -11.7 11
11:50 1018 30.06 847 25.01 5.1 41.2 30 -11.1 12
11:55 1018 30.06 847 25.01 4.7 40.5 29 -11.7 10.9
12:00 1018 30.06 847 25.01 4.7 40.5 32 -10.6 12.9
12:05 1018 30.06 847 25.01 4.7 40.5 32 -10.8 12.6
12:10 1018 30.06 848 25.04 4.8 40.7 30 -11.5 11.2
12:15 1018 30.06 847 25.01 4.9 40.8 31 -10.9 12.5
12:20 1018 30.06 848 25.04 4.9 40.8 31 -10.7 12.8
12:25 1018 30.06 848 25.04 5.1 41.2 31 -10.8 12.5
12:30 1018 30.06 847 25.01 4.8 40.6 32 -10.4 13.2
12:35 1018 30.06 847 25.01 5 41 29 -11.6 11.2
12:40 1018 30.06 847 25.01 5.2 41.3 31 -10.7 12.8
12:45 1018 30.06 847 25.01 4.9 40.9 32 -10.3 13.5
12:50 1018 30.06 847 25.01 5.1 41.2 29 -11.3 11.6
12:55 1018 30.06 847 25.01 5.4 41.7 26 -12.4 9.6
13:00 1018 30.06 847 25.01 5.7 42.3 26 -12.2 10
13:05 1018 30.06 847 25.01 5.9 42.6 26 -12.3 9.9
13:10 1017 30.03 847 25.01 6.2 43.2 25 -12.5 9.5
13:15 1017 30.03 847 25.01 6.4 43.6 25 -12.4 9.7
13:20 1017 30.03 847 25.01 6.6 43.9 24 -12.4 9.7
13:25 1017 30.03 846 24.98 6.8 44.3 25 -11.7 10.9
13:30 1017 30.03 846 24.98 6.8 44.3 26 -11.3 11.7
13:35 1017 30.03 847 25.01 6.9 44.3 26 -11.5 11.3
13:40 1017 30.03 846 24.98 6.9 44.3 27 -11.1 12
13:45 1017 30.03 846 24.98 6.9 44.4 28 -10.6 12.9
13:50 1017 30.03 847 25.01 7 44.6 29 -9.9 14.2
13:55 1017 30.03 846 24.98 7.4 45.2 30 -9.3 15.3
14:00 1017 30.03 847 25.01 7.7 45.8 30 -9 15.8
14:05 1017 30.03 847 25.01 7.8 46 30 -8.6 16.6
14:10 1017 30.03 846 24.98 7.8 46.1 31 -8.4 16.9
14:15 1017 30.03 846 24.98 7.8 46 32 -8.1 17.5
14:20 1017 30.03 846 24.98 7.9 46.3 31 -8.1 17.4
14:25 1017 30.03 846 24.98 8.3 47 31 -7.9 17.7
14:30 1017 30.03 846 24.98 8.3 47 31 -7.8 18
14:35 1017 30.03 847 25.01 8.3 46.9 31 -8 17.6
14:40 1017 30.03 847 25.01 8.4 47.1 31 -7.9 17.8
14:45 1017 30.03 847 25.01 8.4 47.1 31 -7.9 17.7
14:50 1017 30.03 847 25.01 8.4 47.1 31 -7.7 18.1
14:55 1017 30.03 846 24.98 8.3 46.9 31 -7.9 17.7
15:00 1017 30.03 847 25.01 8.3 46.9 31 -7.8 18
15:05 1017 30.03 847 25.01 8.2 46.8 31 -7.7 18.2
15:10 1017 30.03 846 24.98 8.1 46.6 31 -7.8 17.9
15:15 1017 30.03 847 25.01 8 46.5 32 -7.6 18.3
15:20 1017 30.03 847 25.01 7.9 46.2 33 -7.5 18.5
15:25 1017 30.03 847 25.01 7.7 45.8 32 -8 17.6
15:30 1017 30.03 847 25.01 7.7 45.8 33 -7.6 18.3
15:35 1017 30.03 847 25.01 7.6 45.6 33 -7.9 17.9
15:40 1018 30.06 847 25.01 7.6 45.7 32 -7.9 17.8
15:45 1018 30.06 847 25.01 7.6 45.6 32 -7.9 17.8
15:50 1018 30.06 847 25.01 7.4 45.3 33 -7.9 17.8
15:55 1017 30.03 847 25.01 7.4 45.3 33 -7.9 17.8
16:00 1018 30.06 847 25.01 7.5 45.5 32 -8.3 17.1
16:05 1018 30.06 847 25.01 7.8 46 31 -8.2 17.2
16:10 1018 30.06 847 25.01 8 46.3 32 -7.9 17.7
16:15 1018 30.06 847 25.01 7.8 46 33 -7.6 18.4
16:20 1018 30.06 847 25.01 7.4 45.4 37 -6.5 20.4
16:25 1018 30.06 847 25.01 7 44.6 38 -6.3 20.6
16:30 1018 30.06 847 25.01 6.7 44.1 37 -6.8 19.8
16:35 1018 30.06 847 25.01 6.8 44.3 39 -6.3 20.6
16:40 1018 30.06 847 25.01 6.6 43.9 39 -6.3 20.6
16:45 1018 30.06 847 25.01 6.6 43.8 39 -6.6 20.2
16:50 1018 30.06 848 25.04 6.6 43.8 39 -6.5 20.3
16:55 1019 30.09 848 25.04 6.4 43.6 41 -5.8 21.6
17:00 1019 30.09 848 25.04 6.1 43 44 -5.3 22.5
17:05 1019 30.09 848 25.04 5.8 42.5 45 -5.3 22.5
17:10 1019 30.09 848 25.04 5.8 42.4 44 -5.4 22.2
17:15 1019 30.09 848 25.04 5.9 42.6 44 -5.4 22.3
17:20 1019 30.09 848 25.04 5.9 42.5 43 -5.7 21.8
17:25 1019 30.09 848 25.04 5.9 42.5 45 -5.3 22.5
17:30 1019 30.09 848 25.04 5.6 42.1 44 -5.7 21.7
17:35 1019 30.09 848 25.04 5.8 42.5 44 -5.5 22.1
17:40 1019 30.09 848 25.04 5.8 42.4 46 -5.1 22.8
17:45 1019 30.09 848 25.04 5.6 42 47 -4.9 23.2
17:50 1019 30.09 848 25.04 5.4 41.8 46 -5.3 22.5
17:55 1019 30.09 848 25.04 5.6 42.1 46 -5 23
18:00 1019 30.09 848 25.04 5.4 41.8 47 -5 23.1
18:05 1019 30.09 849 25.07 5.5 41.8 48 -4.6 23.8
18:10 1019 30.09 849 25.07 5.3 41.5 50 -4.3 24.2
18:15 1020 30.12 849 25.07 5.1 41.2 50 -4.6 23.8
18:20 1020 30.12 849 25.07 5.1 41.1 52 -4 24.7
18:25 1019 30.09 849 25.07 4.8 40.7 52 -4.2 24.4
18:30 1020 30.12 849 25.07 4.8 40.6 51 -4.4 24
18:35 1020 30.12 849 25.07 4.9 40.7 52 -4.3 24.3
18:40 1020 30.12 849 25.07 4.9 40.7 50 -4.7 23.5
18:45 1020 30.12 849 25.07 5 41 49 -4.8 23.4
18:50 1020 30.12 849 25.07 5 41 50 -4.6 23.7
18:55 1020 30.12 849 25.07 4.9 40.9 50 -4.6 23.7
19:00 1020 30.12 849 25.07 5 40.9 48 -5.1 22.8
19:05 1020 30.12 849 25.07 5.2 41.3 47 -5.2 22.6
19:10 1020 30.12 849 25.07 5.3 41.5 47 -5.1 22.8
19:15 1020 30.12 849 25.07 5.3 41.5 45 -5.6 21.8
19:20 1020 30.12 849 25.07 5.4 41.8 45 -5.5 22.1
19:25 1020 30.12 849 25.07 5.4 41.8 45 -5.6 21.9
19:30 1020 30.12 849 25.07 5.4 41.7 45 -5.6 22
19:35 1020 30.12 849 25.07 5.3 41.6 45 -5.5 22.1
19:40 1020 30.12 849 25.07 5.3 41.6 45 -5.6 21.9
19:45 1020 30.12 849 25.07 5.3 41.5 46 -5.5 22.2
19:50 1020 30.12 849 25.07 5.2 41.4 46 -5.4 22.3
19:55 1020 30.12 849 25.07 5.1 41.1 46 -5.6 21.8
20:00 1020 30.12 849 25.07 5.2 41.3 46 -5.4 22.2
20:05 1020 30.12 849 25.07 4.9 40.8 48 -5.3 22.5
20:10 1020 30.12 849 25.07 4.7 40.4 49 -5 23
20:15 1020 30.12 849 25.07 4.5 40.1 49 -5.2 22.7
20:20 1020 30.12 850 25.1 4.6 40.2 48 -5.4 22.3
20:25 1020 30.12 850 25.1 4.8 40.6 47 -5.6 21.9
20:30 1020 30.12 850 25.1 4.8 40.7 48 -5.2 22.6
20:35 1020 30.12 850 25.1 4.5 40.2 47 -5.7 21.7
20:40 1020 30.12 850 25.1 4.6 40.2 46 -6.1 21
20:45 1020 30.12 850 25.1 4.8 40.6 44 -6.4 20.4
20:50 1021 30.15 850 25.1 4.9 40.8 45 -6 21.1
20:55 1021 30.15 850 25.1 4.8 40.7 45 -6.2 20.8
21:00 1021 30.15 850 25.1 4.8 40.6 44 -6.5 20.4
21:05 1021 30.15 850 25.1 4.8 40.6 44 -6.4 20.4
21:10 1021 30.15 850 25.1 4.7 40.5 44 -6.4 20.4
21:15 1021 30.15 850 25.1 4.6 40.3 45 -6.4 20.4
21:20 1021 30.15 850 25.1 4.4 40 46 -6.3 20.6
21:25 1021 30.15 850 25.1 4.4 39.9 45 -6.5 20.3
21:30 1021 30.15 850 25.1 4.4 39.9 45 -6.5 20.2
21:35 1021 30.15 850 25.1 4.5 40.1 44 -6.8 19.8
21:40 1021 30.15 850 25.1 4.6 40.2 44 -6.8 19.8
21:45 1021 30.15 850 25.1 4.5 40.2 45 -6.5 20.3
21:50 1021 30.15 850 25.1 4.5 40.1 45 -6.5 20.3
21:55 1021 30.15 850 25.1 4.4 40 47 -6.1 21.1
22:00 1021 30.15 850 25.1 4.2 39.6 47 -6.2 20.9
22:05 1021 30.15 850 25.1 4.4 39.9 44 -6.9 19.6
22:10 1021 30.15 850 25.1 4.7 40.4 44 -6.7 20
22:15 1021 30.15 850 25.1 4.7 40.5 43 -6.7 19.9
22:20 1021 30.15 850 25.1 4.7 40.5 43 -6.8 19.8
22:25 1021 30.15 850 25.1 4.6 40.3 45 -6.3 20.6
22:30 1021 30.15 850 25.1 4.3 39.7 45 -6.5 20.3
22:35 1021 30.15 850 25.1 4.1 39.4 45 -6.9 19.6
22:40 1021 30.15 850 25.1 4 39.2 45 -6.8 19.8
22:45 1020 30.12 850 25.1 4.1 39.3 43 -7.4 18.6
22:50 1020 30.12 850 25.1 4.3 39.7 43 -7.3 18.9
22:55 1020 30.12 850 25.1 4 39.3 44 -7.1 19.2
23:00 1020 30.12 849 25.07 3.7 38.7 46 -7 19.4
23:05 1020 30.12 849 25.07 3.5 38.3 46 -7.2 19.1
23:10 1020 30.12 849 25.07 3.5 38.3 46 -7.1 19.2
23:15 1020 30.12 849 25.07 3.3 37.9 48 -6.8 19.7
23:20 1020 30.12 849 25.07 3 37.5 46 -7.4 18.7
23:25 1020 30.12 849 25.07 3.2 37.8 46 -7.3 18.9
23:30 1020 30.12 849 25.07 3.3 38 46 -7.1 19.2
23:35 1020 30.12 849 25.07 3.2 37.7 46 -7.2 19
23:40 1020 30.12 849 25.07 3.2 37.7 45 -7.7 18.2
23:45 1020 30.12 849 25.07 3.3 38 45 -7.6 18.3
23:50 1020 30.12 849 25.07 3.6 38.4 43 -7.8 18
23:55 1020 30.12 849 25.07 3.7 38.7 43 -7.8 18
24:00 1020 30.12 850 25.1 3.4 38.2 46 -7 19.3